Time;durP1;ratioP1;P1;durP2;ratioP2;P2;SDS_P1;SDS_P2;PMS_P1;PMS_P2;Temp;Humidity;BMP_temperature;BMP_pressure;BME280_temperature;BME280_humidity;BME280_pressure;Samples;Min_cycle;Max_cycle;Signal;HPM_P1;HPM_P2
2022/03/09 00:02:19;;;;;;;;;;;5.00;99.90;;;;;;5054738;28;19909;-66
2022/03/09 00:04:45;;;;;;;;;;;5.00;99.90;;;;;;5056012;28;19908;-66
2022/03/09 00:07:10;;;;;;;;;;;5.00;99.90;;;;;;5056993;28;19983;-66
2022/03/09 00:09:36;;;;;;;;;;;5.00;99.90;;;;;;5065619;28;19909;-66
2022/03/09 00:12:02;;;;;;;;;;;4.90;99.90;;;;;;5054622;28;19941;-66
2022/03/09 00:14:29;;;;;;;;;;;4.90;99.90;;;;;;5054609;28;20411;-67
2022/03/09 00:16:55;;;;;;;;;;;4.80;99.90;;;;;;5053939;28;19917;-67
2022/03/09 00:19:24;;;;;;;;;;;4.80;99.90;;;;;;5054426;28;19920;-67
2022/03/09 00:21:57;;;;;;;;;;;4.80;99.90;;;;;;5054017;28;19944;-67
2022/03/09 00:24:23;;;;;;;;;;;4.80;99.90;;;;;;5056156;28;19916;-67
2022/03/09 00:26:49;;;;;;;;;;;4.80;99.90;;;;;;5053864;28;20356;-67
2022/03/09 00:29:15;;;;;;;;;;;4.70;99.90;;;;;;5054133;28;19940;-67
2022/03/09 00:31:43;;;;;;;;;;;4.70;99.90;;;;;;5052564;28;20102;-66
2022/03/09 00:34:10;;;;;;;;;;;4.80;99.90;;;;;;5052695;28;19952;-67
2022/03/09 00:36:39;;;;;;;;;;;4.80;99.90;;;;;;5053670;28;20017;-66
2022/03/09 00:39:08;;;;;;;;;;;5.00;99.90;;;;;;5053767;28;19909;-66
2022/03/09 00:41:35;;;;;;;;;;;5.00;99.90;;;;;;5054886;28;19955;-67
2022/03/09 00:44:03;;;;;;;;;;;4.90;99.90;;;;;;5054528;28;19913;-66
2022/03/09 00:46:32;;;;;;;;;;;4.90;99.90;;;;;;5054114;28;19920;-67
2022/03/09 00:48:58;;;;;;;;;;;4.80;99.90;;;;;;5053876;28;19909;-67
2022/03/09 00:51:25;;;;;;;;;;;4.90;99.90;;;;;;5053600;28;19923;-67
2022/03/09 00:53:51;;;;;;;;;;;5.00;99.90;;;;;;5053358;28;19916;-67
2022/03/09 00:56:28;;;;;;;;;;;4.90;99.90;;;;;;5053283;28;19913;-67
2022/03/09 00:58:58;;;;;;;;;;;4.70;99.90;;;;;;5056601;28;20391;-67
2022/03/09 01:01:24;;;;;;;;;;;4.70;99.90;;;;;;5104255;28;19999;-67
2022/03/09 01:03:51;;;;;;;;;;;4.60;99.90;;;;;;5072640;28;20346;-67
2022/03/09 01:06:17;;;;;;;;;;;4.80;99.90;;;;;;5071162;28;19934;-67
2022/03/09 01:08:43;;;;;;;;;;;4.80;99.90;;;;;;5071834;28;20352;-66
2022/03/09 01:11:13;;;;;;;;;;;4.80;99.90;;;;;;5073550;28;19909;-67
2022/03/09 01:13:42;;;;;;;;;;;4.90;99.90;;;;;;5072886;28;20313;-66
2022/03/09 01:16:11;;;;;;;;;;;4.80;99.90;;;;;;5088493;28;19922;-67
2022/03/09 01:18:37;;;;;;;;;;;4.80;99.90;;;;;;5073089;28;19977;-67
2022/03/09 01:21:09;;;;;;;;;;;4.80;99.90;;;;;;5071786;28;20356;-66
2022/03/09 01:23:35;;;;;;;;;;;4.70;99.90;;;;;;5072680;28;19913;-66
2022/03/09 01:26:04;;;;;;;;;;;4.30;99.90;;;;;;5073314;28;19915;-67
2022/03/09 01:28:29;;;;;;;;;;;4.10;99.90;;;;;;5071922;28;19912;-67
2022/03/09 01:30:55;;;;;;;;;;;4.20;99.90;;;;;;5072583;28;19915;-67
2022/03/09 01:33:22;;;;;;;;;;;4.40;99.90;;;;;;5072937;28;19982;-67
2022/03/09 01:35:48;;;;;;;;;;;4.20;99.90;;;;;;5072924;28;20402;-67
2022/03/09 01:38:14;;;;;;;;;;;3.90;99.90;;;;;;5072816;28;19916;-66
2022/03/09 01:40:43;;;;;;;;;;;3.90;99.90;;;;;;5070909;28;19916;-66
2022/03/09 01:43:09;;;;;;;;;;;4.00;99.90;;;;;;5054725;28;19992;-66
2022/03/09 01:45:41;;;;;;;;;;;4.10;99.90;;;;;;5054072;28;20435;-66
2022/03/09 01:48:08;;;;;;;;;;;4.00;99.90;;;;;;5071322;28;19908;-66
2022/03/09 01:50:37;;;;;;;;;;;4.00;99.90;;;;;;5072268;28;20275;-66
2022/03/09 01:53:03;;;;;;;;;;;3.90;99.90;;;;;;5071417;28;19915;-66
2022/03/09 01:55:29;;;;;;;;;;;3.90;99.90;;;;;;5071226;28;20372;-67
2022/03/09 01:57:55;;;;;;;;;;;4.10;99.90;;;;;;5071729;28;19921;-67
2022/03/09 02:00:23;;;;;;;;;;;3.90;99.90;;;;;;5072517;28;19919;-66
2022/03/09 02:02:51;;;;;;;;;;;3.70;99.90;;;;;;5071979;28;20379;-66
2022/03/09 02:05:17;;;;;;;;;;;3.80;99.90;;;;;;5072122;28;19908;-66
2022/03/09 02:10:26;;;;;;;;;;;3.80;99.90;;;;;;5072582;28;20013;-66
2022/03/09 02:12:52;;;;;;;;;;;3.60;99.90;;;;;;5072304;28;20375;-66
2022/03/09 02:15:18;;;;;;;;;;;3.60;99.90;;;;;;5071805;28;19909;-66
2022/03/09 02:17:43;;;;;;;;;;;3.80;99.90;;;;;;5071785;28;20279;-66
2022/03/09 02:20:09;;;;;;;;;;;3.80;99.90;;;;;;5072155;28;19999;-66
2022/03/09 02:22:36;;;;;;;;;;;3.70;99.90;;;;;;5071589;28;20360;-66
2022/03/09 02:25:04;;;;;;;;;;;3.80;99.90;;;;;;5072031;28;19989;-66
2022/03/09 02:27:30;;;;;;;;;;;3.80;99.90;;;;;;5072014;28;20344;-66
2022/03/09 02:29:56;;;;;;;;;;;4.00;99.90;;;;;;5072381;28;20041;-66
2022/03/09 02:32:22;;;;;;;;;;;3.80;99.90;;;;;;5073614;28;20284;-66
2022/03/09 02:34:48;;;;;;;;;;;3.70;99.90;;;;;;5073409;28;20348;-66
2022/03/09 02:37:14;;;;;;;;;;;3.70;99.90;;;;;;5071528;28;19916;-66
2022/03/09 02:39:39;;;;;;;;;;;3.70;99.90;;;;;;5071452;28;19908;-66
2022/03/09 02:42:05;;;;;;;;;;;3.60;99.90;;;;;;5071782;28;19912;-66
2022/03/09 02:44:31;;;;;;;;;;;3.30;99.90;;;;;;5072896;28;19912;-66
2022/03/09 02:46:57;;;;;;;;;;;3.20;99.90;;;;;;5072309;28;19962;-66
2022/03/09 02:49:23;;;;;;;;;;;3.10;99.90;;;;;;5071596;28;20002;-66
2022/03/09 02:51:48;;;;;;;;;;;3.00;99.90;;;;;;5071173;28;19914;-66
2022/03/09 02:54:14;;;;;;;;;;;3.00;99.90;;;;;;5071202;28;20317;-66
2022/03/09 02:56:40;;;;;;;;;;;3.10;99.90;;;;;;5070131;28;19939;-66
2022/03/09 02:59:05;;;;;;;;;;;3.20;99.90;;;;;;5071689;28;20292;-66
2022/03/09 03:01:31;;;;;;;;;;;3.30;99.90;;;;;;5071915;28;19912;-66
2022/03/09 03:03:57;;;;;;;;;;;3.40;99.90;;;;;;5071337;28;19908;-66
2022/03/09 03:06:23;;;;;;;;;;;3.40;99.90;;;;;;5071602;28;19912;-66
2022/03/09 03:08:49;;;;;;;;;;;3.70;99.90;;;;;;5070691;28;19943;-66
2022/03/09 03:11:15;;;;;;;;;;;3.80;99.90;;;;;;5072584;28;19989;-66
2022/03/09 03:13:40;;;;;;;;;;;3.90;99.90;;;;;;5071207;28;20275;-66
2022/03/09 03:16:06;;;;;;;;;;;4.00;99.90;;;;;;5070200;28;20335;-66
2022/03/09 03:18:32;;;;;;;;;;;4.00;99.90;;;;;;5069530;28;19923;-66
2022/03/09 03:20:58;;;;;;;;;;;3.90;99.90;;;;;;5071297;28;19908;-66
2022/03/09 03:23:24;;;;;;;;;;;3.60;99.90;;;;;;5071332;28;19919;-66
2022/03/09 03:25:50;;;;;;;;;;;3.50;99.90;;;;;;5073403;28;20373;-67
2022/03/09 03:28:16;;;;;;;;;;;3.50;99.90;;;;;;5075401;28;20526;-66
2022/03/09 03:30:42;;;;;;;;;;;3.50;99.90;;;;;;5076474;28;19916;-66
2022/03/09 03:33:08;;;;;;;;;;;3.70;99.90;;;;;;5077153;28;19943;-65
2022/03/09 03:35:34;;;;;;;;;;;3.80;99.90;;;;;;5077106;28;19908;-66
2022/03/09 03:37:59;;;;;;;;;;;3.90;99.90;;;;;;5077213;28;19916;-66
2022/03/09 03:40:25;;;;;;;;;;;3.80;99.90;;;;;;5076971;28;19908;-66
2022/03/09 03:42:50;;;;;;;;;;;3.70;99.90;;;;;;5076942;28;19908;-66
2022/03/09 03:45:16;;;;;;;;;;;3.60;99.90;;;;;;5077136;28;19908;-66
2022/03/09 03:47:42;;;;;;;;;;;3.30;99.90;;;;;;5076860;28;19916;-65
2022/03/09 03:50:08;;;;;;;;;;;3.10;99.90;;;;;;5076739;28;19912;-66
2022/03/09 03:52:34;;;;;;;;;;;3.10;99.90;;;;;;5076161;28;19977;-66
2022/03/09 03:54:59;;;;;;;;;;;3.20;99.90;;;;;;5076076;28;19915;-66
2022/03/09 03:57:25;;;;;;;;;;;3.10;99.90;;;;;;5076361;28;20249;-66
2022/03/09 03:59:51;;;;;;;;;;;3.20;99.90;;;;;;5076380;28;19951;-66
2022/03/09 04:02:16;;;;;;;;;;;3.00;99.90;;;;;;5076315;28;20253;-66
2022/03/09 04:04:42;;;;;;;;;;;3.00;99.90;;;;;;5076283;28;20356;-66
2022/03/09 04:07:08;;;;;;;;;;;3.00;99.90;;;;;;5076375;28;20335;-66
2022/03/09 04:09:33;;;;;;;;;;;2.90;99.90;;;;;;5076573;28;19916;-66
2022/03/09 04:11:59;;;;;;;;;;;3.00;99.90;;;;;;5076528;28;20429;-66
2022/03/09 04:14:24;;;;;;;;;;;3.10;99.90;;;;;;5076288;28;19947;-66
2022/03/09 04:16:50;;;;;;;;;;;3.30;99.90;;;;;;5076155;28;19912;-66
2022/03/09 04:19:16;;;;;;;;;;;3.40;99.90;;;;;;5075114;28;19955;-66
2022/03/09 04:21:41;;;;;;;;;;;3.50;99.90;;;;;;5076387;28;19909;-66
2022/03/09 04:24:07;;;;;;;;;;;3.70;99.90;;;;;;5076228;28;20287;-66
2022/03/09 04:26:33;;;;;;;;;;;3.60;99.90;;;;;;5076121;28;19916;-66
2022/03/09 04:28:59;;;;;;;;;;;3.50;99.90;;;;;;5075991;28;19919;-66
2022/03/09 04:31:25;;;;;;;;;;;3.60;99.90;;;;;;5075950;28;19983;-66
2022/03/09 04:33:50;;;;;;;;;;;3.60;99.90;;;;;;5076058;28;20002;-66
2022/03/09 04:36:16;;;;;;;;;;;3.70;99.90;;;;;;5075720;28;19908;-66
2022/03/09 04:38:42;;;;;;;;;;;3.70;99.90;;;;;;5076054;28;20348;-66
2022/03/09 04:41:07;;;;;;;;;;;3.60;99.90;;;;;;5075987;28;19915;-66
2022/03/09 04:43:33;;;;;;;;;;;3.40;99.90;;;;;;5073324;28;19915;-66
2022/03/09 04:45:58;;;;;;;;;;;3.50;99.90;;;;;;5073486;28;19939;-66
2022/03/09 04:48:24;;;;;;;;;;;3.40;99.90;;;;;;5074284;28;19919;-66
2022/03/09 04:50:50;;;;;;;;;;;3.30;99.90;;;;;;5075277;28;19920;-66
2022/03/09 04:53:15;;;;;;;;;;;3.30;99.90;;;;;;5075546;28;19909;-66
2022/03/09 04:55:41;;;;;;;;;;;3.10;99.90;;;;;;5075451;28;19947;-66
2022/03/09 04:58:06;;;;;;;;;;;3.00;99.90;;;;;;5075485;28;20012;-66
2022/03/09 05:00:32;;;;;;;;;;;3.00;99.90;;;;;;5075572;28;19909;-66
2022/03/09 05:02:58;;;;;;;;;;;3.10;99.90;;;;;;5075274;28;20283;-66
2022/03/09 05:05:23;;;;;;;;;;;3.10;99.90;;;;;;5075168;28;19912;-65
2022/03/09 05:07:49;;;;;;;;;;;3.10;99.90;;;;;;5075137;28;19961;-66
2022/03/09 05:10:15;;;;;;;;;;;3.20;99.90;;;;;;5075065;28;19917;-66
2022/03/09 05:12:40;;;;;;;;;;;3.00;99.90;;;;;;5073894;28;20378;-66
2022/03/09 05:15:06;;;;;;;;;;;2.80;99.90;;;;;;5075326;28;20620;-66
2022/03/09 05:17:32;;;;;;;;;;;2.40;99.90;;;;;;5073781;28;19916;-66
2022/03/09 05:19:58;;;;;;;;;;;2.40;99.90;;;;;;5075301;28;19919;-66
2022/03/09 05:22:23;;;;;;;;;;;2.30;99.90;;;;;;5075062;28;19955;-66
2022/03/09 05:24:49;;;;;;;;;;;2.20;99.90;;;;;;5073614;28;19915;-65
2022/03/09 05:27:15;;;;;;;;;;;2.30;99.90;;;;;;5074916;28;19913;-66
2022/03/09 05:29:40;;;;;;;;;;;2.30;99.90;;;;;;5073676;28;19912;-65
2022/03/09 05:32:06;;;;;;;;;;;2.30;99.90;;;;;;5074943;28;19908;-66
2022/03/09 05:34:32;;;;;;;;;;;2.40;99.90;;;;;;5074958;28;19908;-66
2022/03/09 05:36:58;;;;;;;;;;;2.50;99.90;;;;;;5074909;28;20014;-66
2022/03/09 05:39:23;;;;;;;;;;;2.50;99.90;;;;;;5074958;28;19908;-66
2022/03/09 05:41:49;;;;;;;;;;;2.40;99.90;;;;;;5073529;28;19915;-66
2022/03/09 05:44:15;;;;;;;;;;;2.20;99.90;;;;;;5074774;28;19908;-66
2022/03/09 05:46:40;;;;;;;;;;;2.40;99.90;;;;;;5074523;28;19908;-66
2022/03/09 05:49:06;;;;;;;;;;;2.60;99.90;;;;;;5073952;28;19912;-65
2022/03/09 05:51:32;;;;;;;;;;;2.70;99.90;;;;;;5074537;28;20006;-65
2022/03/09 05:53:58;;;;;;;;;;;2.70;99.90;;;;;;5073157;28;20279;-66
2022/03/09 05:56:24;;;;;;;;;;;2.90;99.90;;;;;;5074406;28;19909;-66
2022/03/09 05:58:49;;;;;;;;;;;2.90;99.90;;;;;;5074496;28;20429;-66
2022/03/09 06:01:15;;;;;;;;;;;2.90;99.90;;;;;;5073081;28;19908;-66
2022/03/09 06:03:41;;;;;;;;;;;2.80;99.90;;;;;;5074347;28;19909;-66
2022/03/09 06:06:09;;;;;;;;;;;2.90;99.90;;;;;;5070389;28;19919;-66
2022/03/09 06:08:38;;;;;;;;;;;3.00;99.90;;;;;;5052219;28;19909;-66
2022/03/09 06:11:04;;;;;;;;;;;2.90;99.90;;;;;;5052080;28;20035;-66
2022/03/09 06:13:29;;;;;;;;;;;2.80;99.90;;;;;;5053554;28;19999;-66
2022/03/09 06:15:55;;;;;;;;;;;2.60;99.90;;;;;;5053931;28;19993;-66
2022/03/09 06:18:20;;;;;;;;;;;2.40;99.90;;;;;;5053801;28;20035;-65
2022/03/09 06:20:47;;;;;;;;;;;2.40;99.90;;;;;;5053898;28;19909;-65
2022/03/09 06:23:12;;;;;;;;;;;2.30;99.90;;;;;;5053896;28;20334;-65
2022/03/09 06:25:38;;;;;;;;;;;2.30;99.90;;;;;;5054035;28;19916;-66
2022/03/09 06:28:04;;;;;;;;;;;2.30;99.90;;;;;;5053972;28;19908;-65
2022/03/09 06:30:30;;;;;;;;;;;2.40;99.90;;;;;;5053846;28;20344;-65
2022/03/09 06:32:55;;;;;;;;;;;2.40;99.90;;;;;;5052563;28;19913;-65
2022/03/09 06:35:21;;;;;;;;;;;2.30;99.90;;;;;;5069123;28;19955;-65
2022/03/09 06:37:47;;;;;;;;;;;2.20;99.90;;;;;;5070210;28;19959;-65
2022/03/09 06:40:12;;;;;;;;;;;2.10;99.90;;;;;;5072465;28;19919;-65
2022/03/09 06:42:38;;;;;;;;;;;2.10;99.90;;;;;;5072302;28;19916;-65
2022/03/09 06:45:04;;;;;;;;;;;2.30;99.90;;;;;;5072237;28;20026;-65
2022/03/09 06:47:31;;;;;;;;;;;2.50;99.90;;;;;;5072040;28;19961;-66
2022/03/09 06:49:57;;;;;;;;;;;2.60;99.90;;;;;;5072510;28;19908;-65
2022/03/09 06:52:22;;;;;;;;;;;2.80;99.90;;;;;;5072320;28;19951;-65
2022/03/09 06:54:48;;;;;;;;;;;3.20;99.90;;;;;;5072181;28;19912;-65
2022/03/09 06:57:14;;;;;;;;;;;3.40;99.90;;;;;;5071988;28;19920;-65
2022/03/09 06:59:40;;;;;;;;;;;3.50;99.90;;;;;;5072487;28;19915;-65
2022/03/09 07:02:05;;;;;;;;;;;3.70;99.90;;;;;;5073120;28;19912;-66
2022/03/09 07:04:31;;;;;;;;;;;3.80;99.90;;;;;;5073172;28;19967;-66
2022/03/09 07:06:57;;;;;;;;;;;4.00;99.90;;;;;;5072716;28;19913;-65
2022/03/09 07:09:22;;;;;;;;;;;4.10;99.90;;;;;;5067092;28;19916;-66
2022/03/09 07:11:48;;;;;;;;;;;4.40;99.90;;;;;;5064608;28;20048;-67
2022/03/09 07:14:13;;;;;;;;;;;4.40;99.90;;;;;;5073432;28;19913;-67
2022/03/09 07:16:39;;;;;;;;;;;4.50;99.90;;;;;;5073306;28;20011;-66
2022/03/09 07:19:05;;;;;;;;;;;4.90;99.90;;;;;;5073346;28;20303;-66
2022/03/09 07:21:30;;;;;;;;;;;5.10;99.90;;;;;;5073299;28;19909;-66
2022/03/09 07:23:56;;;;;;;;;;;4.90;99.90;;;;;;5073166;28;19948;-66
2022/03/09 07:26:21;;;;;;;;;;;5.40;99.90;;;;;;5073209;28;20355;-66
2022/03/09 07:28:47;;;;;;;;;;;5.70;99.90;;;;;;5073128;28;19912;-65
2022/03/09 07:31:13;;;;;;;;;;;;;;;;;;5071854;28;20362;-65
2022/03/09 07:33:39;;;;;;;;;;;6.40;99.90;;;;;;5073126;28;19912;-66
2022/03/09 07:36:04;;;;;;;;;;;6.10;99.90;;;;;;5073207;28;19912;-65
2022/03/09 07:38:30;;;;;;;;;;;6.20;99.90;;;;;;5071757;28;19926;-65
2022/03/09 07:40:56;;;;;;;;;;;;;;;;;;5066814;28;19940;-66
2022/03/09 07:43:22;;;;;;;;;;;6.80;99.90;;;;;;5053843;28;19909;-66
2022/03/09 07:45:48;;;;;;;;;;;7.30;99.90;;;;;;5064501;28;19912;-66
2022/03/09 07:48:15;;;;;;;;;;;7.40;99.90;;;;;;5055650;28;19908;-66
2022/03/09 07:50:41;;;;;;;;;;;7.40;99.90;;;;;;5061927;28;19991;-66
2022/03/09 07:53:07;;;;;;;;;;;7.80;99.90;;;;;;5053075;28;19944;-66
2022/03/09 07:55:33;;;;;;;;;;;7.90;99.90;;;;;;5053013;28;20357;-65
2022/03/09 07:57:59;;;;;;;;;;;7.80;99.90;;;;;;5051510;28;19917;-65
2022/03/09 08:00:25;;;;;;;;;;;7.80;99.90;;;;;;5051659;28;20390;-66
2022/03/09 08:02:50;;;;;;;;;;;8.00;99.90;;;;;;5052909;28;19913;-66
2022/03/09 08:05:16;;;;;;;;;;;8.00;99.90;;;;;;5052883;28;19908;-66
2022/03/09 08:07:43;;;;;;;;;;;8.30;99.90;;;;;;5052850;28;19915;-66
2022/03/09 08:10:09;;;;;;;;;;;8.30;99.90;;;;;;5052924;28;19909;-66
2022/03/09 08:12:35;;;;;;;;;;;8.20;99.90;;;;;;5054698;28;19962;-66
2022/03/09 08:15:02;;;;;;;;;;;8.30;99.90;;;;;;5056566;28;19919;-66
2022/03/09 08:17:27;;;;;;;;;;;8.30;99.90;;;;;;5055027;28;19916;-67
2022/03/09 08:19:53;;;;;;;;;;;8.40;99.90;;;;;;5053808;28;20276;-66
2022/03/09 08:22:19;;;;;;;;;;;8.50;99.90;;;;;;5054089;28;19913;-67
2022/03/09 08:24:45;;;;;;;;;;;8.60;99.90;;;;;;5056347;28;19944;-67
2022/03/09 08:27:11;;;;;;;;;;;8.50;99.90;;;;;;5057321;28;20383;-67
2022/03/09 08:29:36;;;;;;;;;;;8.50;99.90;;;;;;5070907;28;19953;-67
2022/03/09 08:32:03;;;;;;;;;;;9.00;99.90;;;;;;5076257;28;19962;-67
2022/03/09 08:34:29;;;;;;;;;;;8.90;99.90;;;;;;5059067;28;19909;-67
2022/03/09 08:36:54;;;;;;;;;;;9.20;99.90;;;;;;5071383;28;20439;-67
2022/03/09 08:39:20;;;;;;;;;;;9.20;99.90;;;;;;5056073;28;19915;-67
2022/03/09 08:41:46;;;;;;;;;;;9.40;99.90;;;;;;5054710;28;19913;-67
2022/03/09 08:44:11;;;;;;;;;;;9.40;99.90;;;;;;5056984;28;19920;-68
2022/03/09 08:46:37;;;;;;;;;;;9.90;99.90;;;;;;5063333;28;19915;-67
2022/03/09 08:49:02;;;;;;;;;;;9.70;99.90;;;;;;5054689;28;19908;-67
2022/03/09 08:51:28;;;;;;;;;;;9.70;99.90;;;;;;5069249;28;19943;-68
2022/03/09 08:53:54;;;;;;;;;;;10.00;99.90;;;;;;5074427;28;20279;-67
2022/03/09 08:56:21;;;;;;;;;;;10.30;99.90;;;;;;5075438;28;20385;-67
2022/03/09 08:58:46;;;;;;;;;;;10.10;99.90;;;;;;5075729;28;20488;-67
2022/03/09 09:01:13;;;;;;;;;;;9.60;99.90;;;;;;5075763;28;19992;-68
2022/03/09 09:03:39;;;;;;;;;;;10.10;99.90;;;;;;5075745;28;19916;-67
2022/03/09 09:06:04;;;;;;;;;;;10.60;99.90;;;;;;5075509;28;19909;-67
2022/03/09 09:08:30;;;;;;;;;;;10.80;99.90;;;;;;5075644;28;19908;-68
2022/03/09 09:10:56;;;;;;;;;;;10.90;99.90;;;;;;5075459;28;20310;-68
2022/03/09 09:13:22;;;;;;;;;;;11.10;99.90;;;;;;5074016;28;19934;-68
2022/03/09 09:15:49;;;;;;;;;;;11.10;99.90;;;;;;5075236;28;19908;-68
2022/03/09 09:18:14;;;;;;;;;;;11.50;99.90;;;;;;5075220;28;19923;-69
2022/03/09 09:20:40;;;;;;;;;;;11.90;99.90;;;;;;5073620;28;19908;-68
2022/03/09 09:23:06;;;;;;;;;;;11.70;99.90;;;;;;5074031;28;19938;-68
2022/03/09 09:25:31;;;;;;;;;;;11.90;99.90;;;;;;5073611;28;20363;-71
2022/03/09 09:27:57;;;;;;;;;;;11.90;99.90;;;;;;5073758;28;20596;-67
2022/03/09 09:30:24;;;;;;;;;;;11.40;99.90;;;;;;5073979;28;19957;-68
2022/03/09 09:32:50;;;;;;;;;;;11.60;99.90;;;;;;5074526;28;19908;-68
2022/03/09 09:35:16;;;;;;;;;;;11.80;99.90;;;;;;5074698;28;19908;-67
2022/03/09 09:37:43;;;;;;;;;;;12.00;99.90;;;;;;5074694;28;19957;-67
2022/03/09 09:40:09;;;;;;;;;;;11.70;99.90;;;;;;5075034;28;19927;-66
2022/03/09 09:42:35;;;;;;;;;;;12.10;99.90;;;;;;5073891;28;19912;-67
2022/03/09 09:45:02;;;;;;;;;;;12.00;99.90;;;;;;5074399;28;19915;-67
2022/03/09 09:47:28;;;;;;;;;;;11.80;99.90;;;;;;5067937;28;19908;-68
2022/03/09 09:49:53;;;;;;;;;;;12.00;99.90;;;;;;5074386;28;19909;-70
2022/03/09 09:52:19;;;;;;;;;;;11.80;99.90;;;;;;5074357;28;19916;-67
2022/03/09 09:54:47;;;;;;;;;;;11.70;99.90;;;;;;5074649;28;20357;-68
2022/03/09 09:57:14;;;;;;;;;;;11.90;99.90;;;;;;5074569;28;19916;-67
2022/03/09 09:59:39;;;;;;;;;;;11.90;99.90;;;;;;5054544;28;20384;-68
2022/03/09 10:02:06;;;;;;;;;;;12.20;99.90;;;;;;5054607;28;19951;-67
2022/03/09 10:04:32;;;;;;;;;;;12.40;99.90;;;;;;5054481;28;19908;-68
2022/03/09 10:06:58;;;;;;;;;;;12.30;99.90;;;;;;5054330;28;19941;-68
2022/03/09 10:09:33;;;;;;;;;;;12.20;99.90;;;;;;5054214;28;19912;-67
2022/03/09 10:11:59;;;;;;;;;;;12.90;99.90;;;;;;5066777;28;19908;-69
2022/03/09 10:14:48;;;;;;;;;;;13.00;99.90;;;;;;5052373;28;20515;-69
2022/03/09 10:17:15;;;;;;;;;;;13.10;99.40;;;;;;5052137;28;19913;-67
2022/03/09 10:19:42;;;;;;;;;;;13.10;99.80;;;;;;5056179;28;19917;-67
2022/03/09 10:22:23;;;;;;;;;;;13.40;99.90;;;;;;5062123;28;19908;-68
2022/03/09 10:24:49;;;;;;;;;;;13.50;99.70;;;;;;5053728;28;20007;-68
2022/03/09 10:27:34;;;;;;;;;;;13.00;99.50;;;;;;5052461;28;19912;-68
2022/03/09 10:30:00;;;;;;;;;;;13.10;99.00;;;;;;5053952;28;20004;-68
2022/03/09 10:32:45;;;;;;;;;;;13.30;99.70;;;;;;5054137;28;19940;-69
2022/03/09 10:35:12;;;;;;;;;;;13.90;99.70;;;;;;5053810;28;19958;-68
2022/03/09 10:37:38;;;;;;;;;;;13.50;98.50;;;;;;5053891;28;20323;-69
2022/03/09 10:40:14;;;;;;;;;;;13.70;99.90;;;;;;5053918;28;20322;-69
2022/03/09 10:42:40;;;;;;;;;;;13.40;98.10;;;;;;5053841;28;19995;-68
2022/03/09 10:45:09;;;;;;;;;;;13.10;97.90;;;;;;5053749;28;19948;-69
2022/03/09 10:47:39;;;;;;;;;;;13.20;98.40;;;;;;5053659;28;19908;-69
2022/03/09 10:50:15;;;;;;;;;;;13.10;98.90;;;;;;5060629;28;20314;-72
2022/03/09 10:52:48;;;;;;;;;;;13.40;98.00;;;;;;5073599;28;19912;-67
2022/03/09 10:55:24;;;;;;;;;;;13.40;98.00;;;;;;5073757;28;19952;-70
2022/03/09 10:57:50;;;;;;;;;;;13.30;98.20;;;;;;5073581;28;19916;-69
2022/03/09 11:00:33;;;;;;;;;;;13.00;97.30;;;;;;5073517;28;19970;-70
2022/03/09 11:03:03;;;;;;;;;;;13.20;97.70;;;;;;5064775;28;19913;-70
2022/03/09 11:05:29;;;;;;;;;;;13.60;97.80;;;;;;5060940;28;19991;-67
2022/03/09 11:07:55;;;;;;;;;;;14.00;97.00;;;;;;5053439;28;19988;-69
2022/03/09 11:10:20;;;;;;;;;;;13.40;97.90;;;;;;5068917;28;19948;-67
2022/03/09 11:12:46;;;;;;;;;;;13.20;97.00;;;;;;5064298;28;20006;-69
2022/03/09 11:15:13;;;;;;;;;;;13.50;98.10;;;;;;5064531;28;19920;-69
2022/03/09 11:17:39;;;;;;;;;;;13.50;98.30;;;;;;5053407;28;20368;-70
2022/03/09 11:20:05;;;;;;;;;;;13.40;97.70;;;;;;5053402;28;19915;-69
2022/03/09 11:22:31;;;;;;;;;;;13.30;97.00;;;;;;5053171;28;20347;-70
2022/03/09 11:24:57;;;;;;;;;;;13.20;97.30;;;;;;5053191;28;20647;-70
2022/03/09 11:27:23;;;;;;;;;;;12.90;97.30;;;;;;5053068;28;19912;-67
2022/03/09 11:29:49;;;;;;;;;;;13.10;98.50;;;;;;5068601;28;19919;-70
2022/03/09 11:32:31;;;;;;;;;;;13.30;97.60;;;;;;5053046;28;19948;-70
2022/03/09 11:34:57;;;;;;;;;;;12.90;97.50;;;;;;5052270;28;19918;-70
2022/03/09 11:37:36;;;;;;;;;;;12.60;98.20;;;;;;5053146;28;19913;-70
2022/03/09 11:40:11;;;;;;;;;;;12.70;96.80;;;;;;5053177;28;19912;-70
2022/03/09 11:42:37;;;;;;;;;;;12.70;97.60;;;;;;5068620;28;20051;-70
2022/03/09 11:45:15;;;;;;;;;;;12.90;97.60;;;;;;5052987;28;19913;-67
2022/03/09 11:47:59;;;;;;;;;;;13.00;97.70;;;;;;5056728;28;19916;-71
2022/03/09 11:50:28;;;;;;;;;;;12.90;97.30;;;;;;5084107;28;19912;-70
2022/03/09 11:52:57;;;;;;;;;;;12.80;96.80;;;;;;5073826;28;19912;-67
2022/03/09 11:55:23;;;;;;;;;;;13.10;97.50;;;;;;5074088;28;19912;-68
2022/03/09 11:57:49;;;;;;;;;;;13.20;98.20;;;;;;5074333;28;19923;-68
2022/03/09 12:00:16;;;;;;;;;;;13.30;98.10;;;;;;5074415;28;20261;-68
2022/03/09 12:02:43;;;;;;;;;;;13.40;98.10;;;;;;5072909;28;19915;-69
2022/03/09 12:05:24;;;;;;;;;;;13.10;97.50;;;;;;5074691;28;19985;-66
2022/03/09 12:07:51;;;;;;;;;;;13.00;98.30;;;;;;5073809;28;19999;-69
2022/03/09 12:10:17;;;;;;;;;;;13.40;97.80;;;;;;5074065;28;19915;-69
2022/03/09 12:13:01;;;;;;;;;;;13.30;97.40;;;;;;5073923;28;19909;-67
2022/03/09 12:15:26;;;;;;;;;;;13.20;96.90;;;;;;5072676;28;19915;-68
2022/03/09 12:17:52;;;;;;;;;;;13.10;97.50;;;;;;5062108;28;20373;-69
2022/03/09 12:20:28;;;;;;;;;;;12.80;97.10;;;;;;5063251;28;19917;-69
2022/03/09 12:22:56;;;;;;;;;;;12.80;97.30;;;;;;5053957;28;19913;-68
2022/03/09 12:25:40;;;;;;;;;;;12.80;97.00;;;;;;5054159;28;20687;-71
2022/03/09 12:28:25;;;;;;;;;;;13.40;98.10;;;;;;5054196;28;19937;-68
2022/03/09 12:30:53;;;;;;;;;;;13.50;96.40;;;;;;5069282;28;19909;-70
2022/03/09 12:33:38;;;;;;;;;;;13.30;96.20;;;;;;5053892;28;19999;-68
2022/03/09 12:36:08;;;;;;;;;;;13.00;96.30;;;;;;5053901;28;19992;-68
2022/03/09 12:38:38;;;;;;;;;;;13.40;97.30;;;;;;5052713;28;19924;-68
2022/03/09 12:41:04;;;;;;;;;;;13.40;96.60;;;;;;5063581;28;19939;-68
2022/03/09 12:43:48;;;;;;;;;;;13.50;96.40;;;;;;5072910;28;20685;-69
2022/03/09 12:46:14;;;;;;;;;;;13.40;96.30;;;;;;5073001;28;19908;-67
2022/03/09 12:48:40;;;;;;;;;;;13.10;96.30;;;;;;5073292;28;19961;-68
2022/03/09 12:51:06;;;;;;;;;;;13.20;95.90;;;;;;5073609;28;20283;-69
2022/03/09 12:53:32;;;;;;;;;;;13.30;95.80;;;;;;5075093;28;19908;-69
2022/03/09 12:55:57;;;;;;;;;;;13.40;96.10;;;;;;5073524;28;19908;-69
2022/03/09 12:58:23;;;;;;;;;;;13.10;96.00;;;;;;5073240;28;19920;-67
2022/03/09 13:01:01;;;;;;;;;;;13.30;95.70;;;;;;5073077;28;19935;-67
2022/03/09 13:03:28;;;;;;;;;;;13.20;96.00;;;;;;5074342;28;19915;-66
2022/03/09 13:05:53;;;;;;;;;;;13.20;96.10;;;;;;5073624;28;19958;-67
2022/03/09 13:08:19;;;;;;;;;;;13.30;95.60;;;;;;5073234;28;19947;-66
2022/03/09 13:10:49;;;;;;;;;;;13.40;95.20;;;;;;5073431;28;19909;-66
2022/03/09 13:13:15;;;;;;;;;;;13.10;94.60;;;;;;5074240;28;19908;-66
2022/03/09 13:15:41;;;;;;;;;;;13.00;94.40;;;;;;5062504;28;20688;-69
2022/03/09 13:18:07;;;;;;;;;;;13.50;94.70;;;;;;5086596;28;19920;-68
2022/03/09 13:20:33;;;;;;;;;;;13.30;94.30;;;;;;5072206;28;20407;-68
2022/03/09 13:22:59;;;;;;;;;;;13.30;94.80;;;;;;5072643;28;20257;-69
2022/03/09 13:25:29;;;;;;;;;;;13.10;93.90;;;;;;5074549;28;19916;-68
2022/03/09 13:28:02;;;;;;;;;;;13.10;94.00;;;;;;5071998;28;20352;-67
2022/03/09 13:30:28;;;;;;;;;;;13.20;93.60;;;;;;5072689;28;19947;-70
2022/03/09 13:32:54;;;;;;;;;;;13.40;94.00;;;;;;5074095;28;19908;-70
2022/03/09 13:35:21;;;;;;;;;;;13.30;94.50;;;;;;5073142;28;19908;-69
2022/03/09 13:37:47;;;;;;;;;;;13.10;94.10;;;;;;5072322;28;20010;-67
2022/03/09 13:40:13;;;;;;;;;;;13.00;94.00;;;;;;5072697;28;20372;-67
2022/03/09 13:42:40;;;;;;;;;;;12.90;94.20;;;;;;5072532;28;19912;-67
2022/03/09 13:45:07;;;;;;;;;;;13.20;94.50;;;;;;5072931;28;19995;-68
2022/03/09 13:47:51;;;;;;;;;;;13.10;94.10;;;;;;5072702;28;19912;-66
2022/03/09 13:50:22;;;;;;;;;;;13.10;93.90;;;;;;5074707;28;19908;-67
2022/03/09 13:52:49;;;;;;;;;;;12.80;93.50;;;;;;5074710;28;19912;-67
2022/03/09 13:55:19;;;;;;;;;;;12.90;93.50;;;;;;5074915;28;19909;-67
2022/03/09 13:57:44;;;;;;;;;;;13.00;94.40;;;;;;5074413;28;19916;-66
2022/03/09 14:00:13;;;;;;;;;;;13.00;94.40;;;;;;5071611;28;19954;-67
2022/03/09 14:02:39;;;;;;;;;;;13.10;93.50;;;;;;5072268;28;19918;-67
2022/03/09 14:05:06;;;;;;;;;;;13.00;93.40;;;;;;5072226;28;20271;-66
2022/03/09 14:07:38;;;;;;;;;;;13.00;94.40;;;;;;5072312;28;20314;-66
2022/03/09 14:10:15;;;;;;;;;;;13.00;94.00;;;;;;5071820;28;19912;-67
2022/03/09 14:12:44;;;;;;;;;;;13.00;94.00;;;;;;5070897;28;19939;-67
2022/03/09 14:15:11;;;;;;;;;;;13.00;93.50;;;;;;5072322;28;19915;-68
2022/03/09 14:17:37;;;;;;;;;;;13.00;93.50;;;;;;5069949;28;19916;-66
2022/03/09 14:20:04;;;;;;;;;;;13.10;93.70;;;;;;5057575;28;19912;-67
2022/03/09 14:22:39;;;;;;;;;;;13.40;94.70;;;;;;5071199;28;19972;-67
2022/03/09 14:25:05;;;;;;;;;;;13.30;92.50;;;;;;5071896;28;19973;-66
2022/03/09 14:27:31;;;;;;;;;;;13.10;93.60;;;;;;5073777;28;20348;-67
2022/03/09 14:29:57;;;;;;;;;;;13.20;92.80;;;;;;5071037;28;19909;-66